Time;durP1;ratioP1;P1;durP2;ratioP2;P2;SDS_P1;SDS_P2;PMS_P1;PMS_P2;Temp;Humidity;BMP_temperature;BMP_pressure;BME280_temperature;BME280_humidity;BME280_pressure;Samples;Min_cycle;Max_cycle;Signal;HPM_P1;HPM_P2
2022/05/01 00:00:08;;;;;;;20.23;14.60;;;;;;;;;;5012129;28;20195;-69
2022/05/01 00:02:33;;;;;;;17.87;13.60;;;;;;;;;;5008166;28;20737;-69
2022/05/01 00:04:59;;;;;;;19.83;14.23;;;;;;;;;;5007868;28;20210;-69
2022/05/01 00:07:24;;;;;;;18.93;13.17;;;;;;;;;;5002641;28;20270;-69
2022/05/01 00:09:49;;;;;;;21.37;14.03;;;;;;;;;;5005172;28;20265;-70
2022/05/01 00:12:14;;;;;;;23.40;13.90;;;;;;;;;;5005196;28;20273;-69
2022/05/01 00:14:39;;;;;;;21.57;14.43;;;;;;;;;;5012777;28;20687;-69
2022/05/01 00:17:04;;;;;;;19.77;15.17;;;;;;;;;;5006808;28;20187;-70
2022/05/01 00:19:30;;;;;;;19.93;14.97;;;;;;;;;;5007952;28;20235;-70
2022/05/01 00:21:58;;;;;;;19.40;15.07;;;;;;;;;;5011431;28;20740;-70
2022/05/01 00:24:23;;;;;;;22.37;14.87;;;;;;;;;;5011807;28;20556;-69
2022/05/01 00:26:48;;;;;;;22.10;14.57;;;;;;;;;;5008283;28;20410;-69
2022/05/01 00:29:14;;;;;;;24.27;16.83;;;;;;;;;;5005771;28;20210;-69
2022/05/01 00:31:39;;;;;;;24.20;16.47;;;;;;;;;;5006330;28;20199;-69
2022/05/01 00:36:50;;;;;;;22.23;15.77;;;;;;;;;;5003662;28;20245;-69
2022/05/01 00:39:15;;;;;;;19.00;14.20;;;;;;;;;;5007104;28;20531;-69
2022/05/01 00:41:40;;;;;;;22.93;16.33;;;;;;;;;;5008988;28;20210;-70
2022/05/01 00:44:06;;;;;;;22.97;16.10;;;;;;;;;;5005496;28;20179;-70
2022/05/01 00:46:32;;;;;;;23.40;16.27;;;;;;;;;;5004974;28;20191;-69
2022/05/01 00:49:00;;;;;;;25.70;16.90;;;;;;;;;;5003932;28;20558;-70
2022/05/01 00:51:27;;;;;;;23.80;17.33;;;;;;;;;;4998089;28;20235;-69
2022/05/01 00:53:53;;;;;;;23.97;18.00;;;;;;;;;;5002714;28;20180;-69
2022/05/01 00:56:18;;;;;;;21.37;17.27;;;;;;;;;;5011384;28;20245;-69
2022/05/01 00:58:44;;;;;;;24.20;16.20;;;;;;;;;;5007630;28;20680;-70
2022/05/01 01:01:10;;;;;;;24.03;17.50;;;;;;;;;;5005568;28;20238;-69
2022/05/01 01:03:36;;;;;;;24.33;17.33;;;;;;;;;;5006443;28;20210;-70
2022/05/01 01:06:01;;;;;;;23.13;17.30;;;;;;;;;;5006493;28;20195;-70
2022/05/01 01:08:26;;;;;;;26.33;17.77;;;;;;;;;;5000424;28;20193;-69
2022/05/01 01:10:51;;;;;;;23.20;17.80;;;;;;;;;;5004643;28;20210;-69
2022/05/01 01:13:24;;;;;;;27.10;17.87;;;;;;;;;;5004567;28;20186;-69
2022/05/01 01:15:49;;;;;;;27.77;19.07;;;;;;;;;;5010046;28;20190;-69
2022/05/01 01:18:14;;;;;;;26.60;17.90;;;;;;;;;;5003742;28;20175;-70
2022/05/01 01:20:40;;;;;;;24.77;18.53;;;;;;;;;;5009617;28;20210;-70
2022/05/01 01:23:06;;;;;;;24.37;17.43;;;;;;;;;;5009732;28;20191;-70
2022/05/01 01:25:32;;;;;;;32.10;20.63;;;;;;;;;;5008206;28;20238;-69
2022/05/01 01:28:05;;;;;;;27.33;18.57;;;;;;;;;;4999011;28;20779;-70
2022/05/01 01:33:15;;;;;;;27.23;19.13;;;;;;;;;;5010056;28;20182;-69
2022/05/01 01:35:40;;;;;;;28.40;19.90;;;;;;;;;;5002734;28;20191;-69
2022/05/01 01:38:05;;;;;;;26.83;19.63;;;;;;;;;;5003614;28;20171;-69
2022/05/01 01:40:34;;;;;;;28.63;20.17;;;;;;;;;;5006794;28;20199;-69
2022/05/01 01:43:01;;;;;;;34.13;21.27;;;;;;;;;;5005123;28;20186;-70
2022/05/01 01:45:28;;;;;;;26.40;19.87;;;;;;;;;;5003403;28;20523;-69
2022/05/01 01:47:53;;;;;;;27.40;19.53;;;;;;;;;;5005164;28;20207;-69
2022/05/01 01:50:18;;;;;;;29.70;20.00;;;;;;;;;;5015581;28;20241;-70
2022/05/01 01:52:47;;;;;;;29.63;20.77;;;;;;;;;;5011781;28;20179;-69
2022/05/01 01:55:18;;;;;;;28.77;19.53;;;;;;;;;;5006329;28;20256;-69
2022/05/01 01:57:46;;;;;;;26.67;19.37;;;;;;;;;;5003924;28;20556;-69
2022/05/01 02:00:11;;;;;;;29.00;20.90;;;;;;;;;;5003557;28;20193;-70
2022/05/01 02:02:37;;;;;;;33.03;22.83;;;;;;;;;;5008992;28;20186;-70
2022/05/01 02:05:03;;;;;;;33.30;22.90;;;;;;;;;;5009997;28;20186;-70
2022/05/01 02:07:30;;;;;;;37.67;22.63;;;;;;;;;;5007731;28;20441;-70
2022/05/01 02:09:55;;;;;;;34.13;22.50;;;;;;;;;;5008704;28;20194;-69
2022/05/01 02:12:20;;;;;;;31.07;22.30;;;;;;;;;;5008577;28;20202;-69
2022/05/01 02:14:45;;;;;;;34.70;22.47;;;;;;;;;;5005907;28;20291;-69
2022/05/01 02:17:11;;;;;;;30.77;22.27;;;;;;;;;;5009094;28;20672;-69
2022/05/01 02:19:36;;;;;;;31.67;21.33;;;;;;;;;;5007463;28;20179;-70
2022/05/01 02:22:01;;;;;;;32.60;22.27;;;;;;;;;;5008886;28;20321;-69
2022/05/01 02:24:27;;;;;;;30.77;22.03;;;;;;;;;;5010502;28;20175;-69
2022/05/01 02:26:52;;;;;;;36.10;22.63;;;;;;;;;;5006407;28;20194;-69
2022/05/01 02:29:17;;;;;;;31.93;23.53;;;;;;;;;;5008529;28;20249;-72
2022/05/01 02:31:43;;;;;;;33.53;23.00;;;;;;;;;;5004888;28;20211;-70
2022/05/01 02:34:09;;;;;;;32.57;21.47;;;;;;;;;;5006627;28;20179;-69
2022/05/01 02:36:34;;;;;;;33.00;21.57;;;;;;;;;;5012913;28;20186;-70
2022/05/01 02:39:00;;;;;;;31.50;21.10;;;;;;;;;;5010814;28;20175;-69
2022/05/01 02:41:25;;;;;;;32.90;21.77;;;;;;;;;;5012785;28;20269;-69
2022/05/01 02:43:50;;;;;;;31.53;21.60;;;;;;;;;;5008638;28;20184;-69
2022/05/01 02:46:15;;;;;;;29.83;22.13;;;;;;;;;;5010984;28;20187;-69
2022/05/01 02:48:41;;;;;;;31.40;21.93;;;;;;;;;;5010253;28;20236;-70
2022/05/01 02:51:06;;;;;;;34.33;23.07;;;;;;;;;;5012881;28;20225;-70
2022/05/01 02:53:32;;;;;;;33.37;21.37;;;;;;;;;;5012773;28;20171;-70
2022/05/01 02:56:00;;;;;;;36.03;22.97;;;;;;;;;;5012711;28;20708;-69
2022/05/01 02:58:25;;;;;;;37.03;24.20;;;;;;;;;;5008013;28;20179;-69
2022/05/01 03:00:50;;;;;;;32.73;23.17;;;;;;;;;;5010466;28;20277;-70
2022/05/01 03:03:15;;;;;;;37.47;23.20;;;;;;;;;;5004363;28;20185;-70
2022/05/01 03:05:41;;;;;;;36.27;23.70;;;;;;;;;;5012269;28;20199;-69
2022/05/01 03:08:06;;;;;;;34.90;23.37;;;;;;;;;;5005110;28;20571;-69
2022/05/01 03:10:31;;;;;;;37.93;25.73;;;;;;;;;;5002666;28;20765;-70
2022/05/01 03:12:56;;;;;;;38.13;25.47;;;;;;;;;;5009278;28;20519;-69
2022/05/01 03:15:24;;;;;;;39.93;24.70;;;;;;;;;;5005109;28;20181;-69
2022/05/01 03:23:17;;;;;;;43.40;27.57;;;;;;;;;;5010880;28;20186;-69
2022/05/01 03:25:42;;;;;;;42.07;26.67;;;;;;;;;;5013227;28;20645;-69
2022/05/01 03:28:07;;;;;;;41.43;24.90;;;;;;;;;;5005344;28;20186;-69
2022/05/01 03:30:32;;;;;;;37.87;24.77;;;;;;;;;;5011053;28;20594;-70
2022/05/01 03:32:58;;;;;;;36.73;25.50;;;;;;;;;;5012530;28;20183;-70
2022/05/01 03:35:23;;;;;;;40.87;25.80;;;;;;;;;;5010907;28;20273;-69
2022/05/01 03:37:50;;;;;;;41.83;27.07;;;;;;;;;;5011743;28;20175;-70
2022/05/01 03:40:15;;;;;;;41.37;25.63;;;;;;;;;;5012419;28;20179;-70
2022/05/01 03:42:41;;;;;;;42.80;25.97;;;;;;;;;;5006976;28;20241;-70
2022/05/01 03:45:06;;;;;;;41.47;26.93;;;;;;;;;;5009646;28;20215;-70
2022/05/01 03:47:32;;;;;;;36.57;25.07;;;;;;;;;;5008324;28;20238;-70
2022/05/01 03:49:58;;;;;;;42.50;26.87;;;;;;;;;;5009075;28;20211;-70
2022/05/01 03:52:23;;;;;;;41.50;26.80;;;;;;;;;;5009455;28;20672;-70
2022/05/01 03:54:48;;;;;;;47.53;26.70;;;;;;;;;;5006875;28;20270;-70
2022/05/01 03:57:13;;;;;;;41.00;24.80;;;;;;;;;;5012632;28;20171;-70
2022/05/01 03:59:38;;;;;;;38.90;25.73;;;;;;;;;;5007731;28;20653;-70
2022/05/01 04:02:03;;;;;;;39.53;24.35;;;;;;;;;;5010449;28;20621;-69
2022/05/01 04:04:29;;;;;;;46.93;26.27;;;;;;;;;;5007616;28;20179;-70
2022/05/01 04:06:54;;;;;;;39.43;26.10;;;;;;;;;;5009589;28;20191;-70
2022/05/01 04:09:23;;;;;;;43.33;26.83;;;;;;;;;;5002787;28;20614;-71
2022/05/01 04:11:48;;;;;;;41.67;26.37;;;;;;;;;;5009816;28;20634;-68
2022/05/01 04:14:13;;;;;;;44.30;26.63;;;;;;;;;;5005187;28;20179;-68
2022/05/01 04:16:38;;;;;;;40.30;26.90;;;;;;;;;;5011246;28;20237;-68
2022/05/01 04:19:03;;;;;;;50.50;29.87;;;;;;;;;;5003030;28;20179;-69
2022/05/01 04:21:29;;;;;;;43.10;28.20;;;;;;;;;;5005830;28;20199;-71
2022/05/01 04:23:54;;;;;;;43.57;27.07;;;;;;;;;;5012665;28;20197;-68
2022/05/01 04:26:19;;;;;;;48.80;29.27;;;;;;;;;;5004752;28;20305;-69
2022/05/01 04:29:36;;;;;;;43.17;26.33;;;;;;;;;;5012929;28;20214;-68
2022/05/01 04:31:29;;;;;;;43.87;27.23;;;;;;;;;;5001879;28;20226;-69
2022/05/01 04:33:54;;;;;;;42.63;27.00;;;;;;;;;;5009269;28;20194;-69
2022/05/01 04:36:20;;;;;;;51.13;30.37;;;;;;;;;;5009841;28;20179;-69
2022/05/01 04:38:45;;;;;;;47.37;29.93;;;;;;;;;;5008761;28;20175;-69
2022/05/01 04:41:10;;;;;;;50.97;29.23;;;;;;;;;;5012185;28;20572;-68
2022/05/01 04:43:36;;;;;;;44.53;29.10;;;;;;;;;;5003669;28;20257;-70
2022/05/01 04:46:02;;;;;;;46.50;28.67;;;;;;;;;;5010198;28;20213;-69
2022/05/01 04:48:27;;;;;;;43.70;28.57;;;;;;;;;;5003611;28;20215;-69
2022/05/01 04:50:52;;;;;;;43.67;28.53;;;;;;;;;;5002660;28;20214;-69
2022/05/01 04:53:18;;;;;;;44.20;26.80;;;;;;;;;;5001037;28;20186;-69
2022/05/01 04:55:45;;;;;;;46.37;27.40;;;;;;;;;;5008931;28;20179;-69
2022/05/01 04:58:10;;;;;;;43.17;28.53;;;;;;;;;;4999393;28;20261;-69
2022/05/01 05:00:36;;;;;;;43.93;28.43;;;;;;;;;;5004224;28;20336;-69
2022/05/01 05:03:02;;;;;;;48.03;29.57;;;;;;;;;;4995619;28;20737;-69
2022/05/01 05:05:28;;;;;;;42.30;27.50;;;;;;;;;;4999307;28;20176;-70
2022/05/01 05:07:53;;;;;;;43.77;28.03;;;;;;;;;;5002314;28;20175;-70
2022/05/01 05:10:19;;;;;;;49.50;29.97;;;;;;;;;;5008608;28;20229;-69
2022/05/01 05:12:45;;;;;;;45.17;28.50;;;;;;;;;;5010236;28;20179;-70
2022/05/01 05:15:11;;;;;;;48.70;29.40;;;;;;;;;;5006344;28;20186;-70
2022/05/01 05:17:37;;;;;;;43.53;28.60;;;;;;;;;;5008168;28;20237;-69
2022/05/01 05:20:03;;;;;;;42.50;27.53;;;;;;;;;;4998808;28;20611;-69
2022/05/01 05:22:28;;;;;;;39.37;26.40;;;;;;;;;;5011049;28;20201;-70
2022/05/01 05:24:54;;;;;;;35.30;25.30;;;;;;;;;;5010417;28;20187;-69
2022/05/01 05:27:21;;;;;;;37.93;25.63;;;;;;;;;;5001936;28;20229;-69
2022/05/01 05:29:49;;;;;;;36.10;25.27;;;;;;;;;;5011769;28;20620;-69
2022/05/01 05:32:14;;;;;;;32.60;24.10;;;;;;;;;;5005330;28;20195;-69
2022/05/01 05:34:39;;;;;;;32.30;23.93;;;;;;;;;;5002186;28;20665;-69
2022/05/01 05:37:05;;;;;;;33.50;23.77;;;;;;;;;;4994285;28;20661;-69
2022/05/01 05:39:30;;;;;;;33.77;24.83;;;;;;;;;;5005956;28;20370;-70
2022/05/01 05:41:55;;;;;;;33.90;23.63;;;;;;;;;;5002093;28;20206;-70
2022/05/01 05:44:20;;;;;;;30.27;21.07;;;;;;;;;;5007974;28;20191;-70
2022/05/01 05:46:46;;;;;;;28.87;20.57;;;;;;;;;;5004412;28;20666;-70
2022/05/01 05:49:11;;;;;;;26.60;19.67;;;;;;;;;;5008576;28;20384;-69
2022/05/01 05:51:36;;;;;;;28.83;18.93;;;;;;;;;;5006123;28;20221;-69
2022/05/01 05:54:01;;;;;;;24.57;18.50;;;;;;;;;;5005594;28;20179;-69
2022/05/01 05:56:26;;;;;;;22.70;18.40;;;;;;;;;;5007879;28;20179;-69
2022/05/01 05:58:52;;;;;;;19.10;15.83;;;;;;;;;;5000026;28;20233;-69
2022/05/01 06:01:17;;;;;;;20.87;16.43;;;;;;;;;;5011132;28;20218;-70
2022/05/01 06:03:42;;;;;;;18.93;16.17;;;;;;;;;;4998370;28;20303;-69
2022/05/01 06:06:07;;;;;;;17.60;14.83;;;;;;;;;;5004233;28;20186;-70
2022/05/01 06:08:35;;;;;;;17.60;14.97;;;;;;;;;;5006760;28;20183;-70
2022/05/01 06:11:00;;;;;;;16.67;13.83;;;;;;;;;;5006785;28;20222;-69
2022/05/01 06:13:25;;;;;;;16.17;13.43;;;;;;;;;;5006008;28;22335;-69
2022/05/01 06:15:50;;;;;;;17.17;12.88;;;;;;;;;;5007267;28;20618;-69
2022/05/01 06:18:16;;;;;;;13.60;11.87;;;;;;;;;;5008695;28;20163;-70
2022/05/01 06:20:41;;;;;;;14.53;12.33;;;;;;;;;;5007671;28;20207;-69
2022/05/01 06:23:07;;;;;;;18.80;13.60;;;;;;;;;;5015731;28;22006;-69
2022/05/01 06:25:32;;;;;;;17.03;12.93;;;;;;;;;;5009936;28;20652;-71
2022/05/01 06:27:57;;;;;;;16.23;12.63;;;;;;;;;;5002561;28;20194;-69
2022/05/01 06:30:22;;;;;;;15.23;12.70;;;;;;;;;;5009361;28;20647;-70
2022/05/01 06:32:48;;;;;;;14.67;12.20;;;;;;;;;;5010649;28;20179;-70
2022/05/01 06:35:14;;;;;;;14.50;12.73;;;;;;;;;;5010780;28;20182;-69
2022/05/01 06:37:39;;;;;;;13.33;11.93;;;;;;;;;;5009854;28;20186;-69
2022/05/01 06:40:05;;;;;;;15.00;12.90;;;;;;;;;;5008385;28;20190;-70
2022/05/01 06:42:31;;;;;;;13.33;12.03;;;;;;;;;;5010393;28;20178;-70
2022/05/01 06:44:56;;;;;;;13.90;11.63;;;;;;;;;;5009660;28;20653;-70
2022/05/01 06:47:21;;;;;;;15.33;12.07;;;;;;;;;;5010790;28;20274;-71
2022/05/01 06:49:46;;;;;;;13.55;12.13;;;;;;;;;;5008804;28;20210;-69
2022/05/01 06:52:12;;;;;;;15.23;12.55;;;;;;;;;;5011082;28;20680;-69
2022/05/01 06:54:37;;;;;;;15.70;12.60;;;;;;;;;;5010477;28;20179;-71
2022/05/01 06:57:02;;;;;;;16.45;11.82;;;;;;;;;;5010491;28;20254;-68
2022/05/01 06:59:28;;;;;;;12.18;10.75;;;;;;;;;;5010163;28;20171;-71
2022/05/01 07:01:53;;;;;;;13.20;11.85;;;;;;;;;;5008307;28;20728;-71
2022/05/01 07:04:18;;;;;;;12.75;11.25;;;;;;;;;;5008321;28;20214;-71
2022/05/01 07:06:45;;;;;;;13.57;11.97;;;;;;;;;;5010037;28;20231;-70
2022/05/01 07:09:10;;;;;;;12.77;10.93;;;;;;;;;;5005292;28;20439;-70
2022/05/01 07:11:35;;;;;;;12.35;11.15;;;;;;;;;;5006179;28;20199;-70
2022/05/01 07:14:00;;;;;;;11.97;9.93;;;;;;;;;;5006449;28;20605;-70
2022/05/01 07:16:25;;;;;;;12.43;11.00;;;;;;;;;;5008244;28;20420;-70
2022/05/01 07:18:51;;;;;;;12.33;10.67;;;;;;;;;;5007018;28;20810;-71
2022/05/01 07:21:16;;;;;;;11.48;10.27;;;;;;;;;;5005898;28;20708;-70
2022/05/01 07:23:41;;;;;;;11.13;10.02;;;;;;;;;;5008109;28;20548;-70
2022/05/01 07:26:06;;;;;;;9.82;8.82;;;;;;;;;;5013522;28;20201;-69
2022/05/01 07:28:33;;;;;;;12.82;9.80;;;;;;;;;;5013002;28;20186;-70
2022/05/01 07:30:58;;;;;;;12.68;9.90;;;;;;;;;;5009746;28;20209;-70
2022/05/01 07:33:23;;;;;;;11.27;10.13;;;;;;;;;;5008962;28;20518;-70
2022/05/01 07:35:48;;;;;;;11.30;10.13;;;;;;;;;;5010721;28;20189;-70
2022/05/01 07:38:14;;;;;;;10.68;9.38;;;;;;;;;;5011526;28;20175;-70
2022/05/01 07:40:39;;;;;;;13.20;9.43;;;;;;;;;;5007585;28;20203;-69
2022/05/01 07:43:04;;;;;;;8.75;7.85;;;;;;;;;;5011866;28;20190;-69
2022/05/01 07:45:30;;;;;;;10.10;7.97;;;;;;;;;;5002438;28;20186;-70
2022/05/01 07:47:55;;;;;;;10.63;8.98;;;;;;;;;;5008777;28;20179;-70
2022/05/01 07:50:20;;;;;;;10.80;8.52;;;;;;;;;;5002891;28;20239;-70
2022/05/01 07:52:45;;;;;;;9.88;8.85;;;;;;;;;;5010150;28;20568;-70
2022/05/01 07:55:11;;;;;;;10.60;9.38;;;;;;;;;;5008113;28;20637;-71
2022/05/01 07:57:36;;;;;;;11.35;8.93;;;;;;;;;;5012036;28;20179;-68
2022/05/01 08:00:02;;;;;;;13.07;8.07;;;;;;;;;;5012344;28;20213;-68
2022/05/01 08:02:34;;;;;;;10.23;7.43;;;;;;;;;;5012810;28;20412;-71
2022/05/01 08:04:59;;;;;;;13.90;8.88;;;;;;;;;;5002500;28;20244;-71
2022/05/01 08:07:24;;;;;;;8.75;7.63;;;;;;;;;;5005977;28;20179;-70
2022/05/01 08:09:50;;;;;;;9.48;7.95;;;;;;;;;;5012697;28;20248;-71
2022/05/01 08:12:15;;;;;;;8.50;6.50;;;;;;;;;;5013448;28;20695;-68
2022/05/01 08:14:41;;;;;;;8.47;6.40;;;;;;;;;;5013008;28;20447;-71
2022/05/01 08:17:07;;;;;;;5.90;5.30;;;;;;;;;;5012676;28;20432;-68
2022/05/01 08:22:15;;;;;;;8.80;5.78;;;;;;;;;;5006183;28;20198;-68
2022/05/01 08:24:40;;;;;;;8.73;6.55;;;;;;;;;;5006782;28;20179;-70
2022/05/01 08:27:07;;;;;;;6.27;3.63;;;;;;;;;;5003209;28;20183;-68
2022/05/01 08:29:37;;;;;;;4.68;4.28;;;;;;;;;;5016141;28;20454;-68
2022/05/01 08:32:03;;;;;;;5.97;5.03;;;;;;;;;;5018457;28;20199;-68
2022/05/01 08:34:28;;;;;;;6.82;6.10;;;;;;;;;;5013106;28;20177;-68
2022/05/01 08:36:53;;;;;;;7.05;6.20;;;;;;;;;;5013043;28;20258;-68
2022/05/01 08:39:18;;;;;;;6.10;5.35;;;;;;;;;;5012415;28;20178;-68
2022/05/01 08:41:43;;;;;;;7.30;5.33;;;;;;;;;;5013327;28;20282;-68
2022/05/01 08:44:13;;;;;;;7.13;5.10;;;;;;;;;;5011360;28;20408;-68
2022/05/01 08:47:02;;;;;;;5.55;4.70;;;;;;;;;;5011385;28;20429;-68
2022/05/01 08:49:28;;;;;;;6.25;4.43;;;;;;;;;;5006000;28;20230;-68
2022/05/01 08:51:53;;;;;;;7.43;5.32;;;;;;;;;;5013061;28;20679;-68
2022/05/01 08:54:19;;;;;;;9.32;5.90;;;;;;;;;;5012892;28;20435;-68
2022/05/01 08:56:44;;;;;;;7.70;6.10;;;;;;;;;;5012770;28;20179;-68
2022/05/01 08:59:10;;;;;;;6.15;5.55;;;;;;;;;;5012064;28;20167;-69
2022/05/01 09:01:37;;;;;;;7.10;5.22;;;;;;;;;;5009784;28;20219;-68
2022/05/01 09:04:02;;;;;;;9.45;5.72;;;;;;;;;;5011152;28;20186;-68
2022/05/01 09:06:28;;;;;;;9.30;5.53;;;;;;;;;;5012593;28;20175;-68
2022/05/01 09:08:53;;;;;;;9.57;5.70;;;;;;;;;;5010453;28;20262;-68
2022/05/01 09:14:03;;;;;;;7.63;5.15;;;;;;;;;;5005351;28;20193;-69
2022/05/01 09:16:28;;;;;;;9.05;5.97;;;;;;;;;;5009563;28;20171;-69
2022/05/01 09:18:53;;;;;;;5.73;5.23;;;;;;;;;;5011105;28;20179;-69
2022/05/01 09:21:18;;;;;;;6.37;5.30;;;;;;;;;;5012491;28;20524;-69
2022/05/01 09:23:44;;;;;;;6.45;5.30;;;;;;;;;;5017368;28;20812;-69
2022/05/01 09:26:12;;;;;;;5.97;5.20;;;;;;;;;;5010901;28;20563;-69
2022/05/01 09:28:46;;;;;;;6.85;5.15;;;;;;;;;;5004267;28;20202;-69
2022/05/01 09:31:11;;;;;;;5.95;5.30;;;;;;;;;;5019314;28;20206;-69
2022/05/01 09:33:36;;;;;;;5.00;4.50;;;;;;;;;;5012486;28;20301;-69
2022/05/01 09:36:01;;;;;;;5.10;4.57;;;;;;;;;;5011571;28;20278;-69
2022/05/01 09:38:27;;;;;;;8.85;4.78;;;;;;;;;;5010347;28;20175;-69
2022/05/01 09:40:57;;;;;;;6.13;5.03;;;;;;;;;;5011664;28;20285;-69
2022/05/01 09:43:32;;;;;;;5.32;4.82;;;;;;;;;;5012119;28;20294;-69
2022/05/01 09:46:29;;;;;;;8.23;5.15;;;;;;;;;;5011458;28;20182;-69
2022/05/01 09:49:00;;;;;;;4.80;4.32;;;;;;;;;;4988694;28;20270;-70
2022/05/01 09:51:26;;;;;;;6.72;3.95;;;;;;;;;;5011165;28;20289;-70
2022/05/01 09:53:52;;;;;;;6.93;4.60;;;;;;;;;;5011988;28;20179;-69
2022/05/01 09:56:18;;;;;;;5.13;4.40;;;;;;;;;;5012054;28;20167;-69
2022/05/01 09:58:43;;;;;;;4.85;4.35;;;;;;;;;;5011343;28;20181;-69
2022/05/01 10:01:11;;;;;;;4.60;4.20;;;;;;;;;;5011402;28;20207;-69
2022/05/01 10:03:38;;;;;;;5.22;4.35;;;;;;;;;;5012119;28;20435;-69
2022/05/01 10:06:06;;;;;;;4.65;4.13;;;;;;;;;;5000479;28;20190;-69
2022/05/01 10:08:31;;;;;;;5.55;4.75;;;;;;;;;;5013064;28;20179;-69
2022/05/01 10:10:57;;;;;;;5.75;3.80;;;;;;;;;;5010193;28;20233;-69
2022/05/01 10:13:23;;;;;;;4.80;4.40;;;;;;;;;;5008132;28;20179;-69
2022/05/01 10:15:48;;;;;;;5.43;3.88;;;;;;;;;;4998566;28;20197;-69
2022/05/01 10:18:13;;;;;;;5.55;4.10;;;;;;;;;;5006905;28;20175;-69
2022/05/01 10:20:40;;;;;;;8.20;4.70;;;;;;;;;;5005958;28;20298;-69
2022/05/01 10:23:05;;;;;;;5.32;4.82;;;;;;;;;;5004253;28;20190;-69
2022/05/01 10:25:32;;;;;;;5.45;4.40;;;;;;;;;;5007035;28;20531;-69
2022/05/01 10:28:06;;;;;;;5.07;4.57;;;;;;;;;;5009188;28;20187;-69
2022/05/01 10:33:38;;;;;;;5.05;4.50;;;;;;;;;;5007093;28;20190;-69
2022/05/01 10:36:19;;;;;;;6.00;5.35;;;;;;;;;;5018968;28;20241;-69
2022/05/01 10:39:01;;;;;;;7.30;4.82;;;;;;;;;;5006524;28;20195;-69
2022/05/01 10:41:28;;;;;;;6.85;5.38;;;;;;;;;;5004956;28;20210;-69
2022/05/01 10:43:55;;;;;;;6.82;4.50;;;;;;;;;;5010161;28;20180;-69
2022/05/01 10:46:20;;;;;;;4.63;4.22;;;;;;;;;;5006585;28;20179;-70
2022/05/01 10:48:45;;;;;;;4.97;4.13;;;;;;;;;;5001877;28;20191;-70
2022/05/01 10:51:38;;;;;;;4.45;4.03;;;;;;;;;;5009295;28;20281;-69
2022/05/01 10:54:09;;;;;;;5.35;4.65;;;;;;;;;;5007426;28;20309;-69
2022/05/01 10:56:35;;;;;;;4.75;4.05;;;;;;;;;;5010419;28;20666;-69
2022/05/01 10:59:29;;;;;;;6.32;4.72;;;;;;;;;;5009505;28;20668;-70
2022/05/01 11:01:55;;;;;;;7.63;3.90;;;;;;;;;;5007744;28;20211;-69
2022/05/01 11:04:21;;;;;;;5.35;4.55;;;;;;;;;;5012574;28;20175;-69
2022/05/01 11:06:48;;;;;;;7.43;5.10;;;;;;;;;;5011236;28;20827;-69
2022/05/01 11:09:14;;;;;;;5.93;4.75;;;;;;;;;;5007830;28;20171;-69
2022/05/01 11:11:39;;;;;;;6.25;4.68;;;;;;;;;;5012025;28;20209;-69
2022/05/01 11:14:05;;;;;;;5.32;4.80;;;;;;;;;;5009348;28;20171;-69
2022/05/01 11:16:49;;;;;;;8.50;5.80;;;;;;;;;;5012554;28;20187;-69
2022/05/01 11:19:14;;;;;;;5.88;5.03;;;;;;;;;;5005087;28;20483;-69
2022/05/01 11:21:39;;;;;;;6.63;5.13;;;;;;;;;;5013947;28;20636;-69
2022/05/01 11:24:05;;;;;;;5.63;4.70;;;;;;;;;;5013361;28;20257;-69
2022/05/01 11:26:31;;;;;;;5.80;4.20;;;;;;;;;;5013176;28;20178;-69
2022/05/01 11:29:17;;;;;;;5.40;4.88;;;;;;;;;;5010915;28;20175;-69
2022/05/01 11:31:48;;;;;;;5.70;5.10;;;;;;;;;;5011425;28;20205;-69
2022/05/01 11:34:16;;;;;;;6.43;4.28;;;;;;;;;;5003909;28;20179;-70
2022/05/01 11:36:51;;;;;;;6.45;4.60;;;;;;;;;;5010737;28;20183;-69
2022/05/01 11:39:17;;;;;;;5.72;4.30;;;;;;;;;;5008854;28;20167;-69
2022/05/01 11:41:42;;;;;;;4.63;4.18;;;;;;;;;;5013183;28;20209;-67
2022/05/01 11:44:23;;;;;;;6.88;5.07;;;;;;;;;;5011028;28;21270;-68
2022/05/01 11:46:48;;;;;;;5.82;4.30;;;;;;;;;;5013925;28;20570;-69
2022/05/01 11:49:13;;;;;;;5.97;4.50;;;;;;;;;;5012110;28;20182;-68
2022/05/01 11:51:39;;;;;;;5.20;4.50;;;;;;;;;;5009399;28;20445;-68
2022/05/01 11:54:04;;;;;;;4.65;4.25;;;;;;;;;;5012695;28;20558;-68
2022/05/01 12:04:44;;;;;;;5.28;4.18;;;;;;;;;;5012832;28;20206;-68
2022/05/01 12:07:14;;;;;;;5.95;4.68;;;;;;;;;;5012670;28;20175;-69
2022/05/01 12:09:40;;;;;;;4.72;4.00;;;;;;;;;;5012419;28;20252;-68
2022/05/01 12:12:06;;;;;;;4.50;4.10;;;;;;;;;;5010313;28;20556;-68
2022/05/01 12:14:31;;;;;;;4.43;4.03;;;;;;;;;;5013405;28;20183;-69
2022/05/01 12:16:56;;;;;;;4.93;4.43;;;;;;;;;;5010805;28;20183;-69
2022/05/01 12:19:33;;;;;;;5.57;4.10;;;;;;;;;;5012384;28;20408;-68
2022/05/01 12:21:58;;;;;;;4.88;4.40;;;;;;;;;;5013049;28;20195;-68
2022/05/01 12:24:25;;;;;;;4.95;4.40;;;;;;;;;;5012218;28;20705;-67
2022/05/01 12:26:52;;;;;;;4.80;4.00;;;;;;;;;;5008494;28;20202;-68
2022/05/01 12:29:18;;;;;;;5.05;4.43;;;;;;;;;;5005432;28;20641;-68
2022/05/01 12:32:01;;;;;;;5.60;4.88;;;;;;;;;;5013322;28;20209;-68
2022/05/01 12:34:28;;;;;;;5.05;4.43;;;;;;;;;;4993265;28;20182;-67
2022/05/01 12:36:57;;;;;;;5.40;4.80;;;;;;;;;;4990920;28;20872;-68
2022/05/01 12:39:22;;;;;;;4.43;4.03;;;;;;;;;;5008525;28;20212;-68
2022/05/01 12:45:03;;;;;;;6.13;4.75;;;;;;;;;;5007640;28;20258;-68
2022/05/01 12:47:33;;;;;;;4.47;4.03;;;;;;;;;;5008500;28;20225;-68
2022/05/01 12:49:58;;;;;;;5.07;4.50;;;;;;;;;;5009882;28;20210;-68
2022/05/01 12:52:30;;;;;;;5.40;4.90;;;;;;;;;;5009222;28;20565;-68
2022/05/01 12:55:05;;;;;;;5.25;4.70;;;;;;;;;;5005632;28;20788;-68
2022/05/01 12:57:32;;;;;;;7.00;4.97;;;;;;;;;;5007418;28;20174;-67
2022/05/01 12:59:57;;;;;;;4.93;4.43;;;;;;;;;;5009693;28;20179;-68
2022/05/01 13:02:22;;;;;;;6.33;4.67;;;;;;;;;;5008334;28;20201;-68
2022/05/01 13:04:58;;;;;;;4.80;4.27;;;;;;;;;;5009601;28;20348;-68
2022/05/01 13:07:35;;;;;;;6.55;4.45;;;;;;;;;;5004838;28;20193;-68
2022/05/01 13:10:02;;;;;;;5.28;4.78;;;;;;;;;;5009258;28;20205;-69
2022/05/01 13:12:31;;;;;;;5.70;4.80;;;;;;;;;;5010103;28;20258;-68
2022/05/01 13:15:02;;;;;;;5.10;4.60;;;;;;;;;;5010441;28;20718;-68
2022/05/01 13:17:28;;;;;;;5.70;5.18;;;;;;;;;;5008256;28;20178;-68
2022/05/01 13:19:54;;;;;;;5.50;5.00;;;;;;;;;;5009695;28;20179;-68
2022/05/01 13:22:19;;;;;;;5.80;5.13;;;;;;;;;;5008977;28;20205;-68
2022/05/01 13:24:45;;;;;;;6.05;4.93;;;;;;;;;;5003129;28;20183;-69
2022/05/01 13:27:11;;;;;;;5.00;4.50;;;;;;;;;;5007133;28;20269;-69
2022/05/01 13:29:39;;;;;;;5.68;4.95;;;;;;;;;;5011324;28;20293;-68
2022/05/01 13:32:06;;;;;;;5.60;4.78;;;;;;;;;;5008129;28;20204;-68
2022/05/01 13:34:32;;;;;;;5.00;4.45;;;;;;;;;;5010041;28;20203;-69
2022/05/01 13:36:57;;;;;;;4.85;4.45;;;;;;;;;;5011170;28;20734;-69
2022/05/01 13:44:44;;;;;;;6.60;4.72;;;;;;;;;;5004863;28;20610;-68
2022/05/01 13:44:54;;;;;;;5.15;4.70;;;;;;;;;;5006990;28;20194;-68
2022/05/01 13:47:20;;;;;;;6.38;5.03;;;;;;;;;;5009329;28;20167;-69
2022/05/01 13:49:45;;;;;;;5.75;4.72;;;;;;;;;;5006760;28;20215;-68
2022/05/01 13:52:11;;;;;;;5.40;4.90;;;;;;;;;;5007821;28;20205;-68
2022/05/01 13:54:36;;;;;;;7.10;5.10;;;;;;;;;;5005712;28;20204;-68
2022/05/01 13:57:02;;;;;;;6.43;5.55;;;;;;;;;;5009873;28;20183;-68
2022/05/01 13:59:27;;;;;;;7.85;5.32;;;;;;;;;;5010633;28;20271;-67
2022/05/01 14:01:54;;;;;;;6.10;5.33;;;;;;;;;;5009128;28;20292;-68
2022/05/01 14:04:20;;;;;;;5.38;4.85;;;;;;;;;;5008531;28;20894;-68
2022/05/01 14:06:45;;;;;;;7.50;5.47;;;;;;;;;;5008387;28;20191;-68
2022/05/01 14:09:12;;;;;;;5.90;5.18;;;;;;;;;;5009829;28;20629;-69
2022/05/01 14:11:37;;;;;;;6.30;5.35;;;;;;;;;;5010680;28;20237;-69
2022/05/01 14:14:03;;;;;;;5.97;4.95;;;;;;;;;;5008861;28;20179;-69
2022/05/01 14:16:28;;;;;;;5.18;4.60;;;;;;;;;;5010324;28;20189;-68
2022/05/01 14:18:54;;;;;;;5.95;4.80;;;;;;;;;;5009503;28;20529;-69
2022/05/01 14:21:19;;;;;;;5.93;5.28;;;;;;;;;;5008403;28;20245;-68
2022/05/01 14:23:46;;;;;;;5.25;4.45;;;;;;;;;;5009432;28;20186;-68
2022/05/01 14:26:11;;;;;;;4.47;3.90;;;;;;;;;;5009481;28;20175;-68
2022/05/01 14:28:38;;;;;;;7.00;4.13;;;;;;;;;;5005056;28;20186;-69
2022/05/01 14:31:18;;;;;;;4.55;4.00;;;;;;;;;;5010520;28;20217;-69
2022/05/01 14:33:45;;;;;;;4.72;4.00;;;;;;;;;;5011088;28;20182;-69
2022/05/01 14:36:17;;;;;;;5.57;4.18;;;;;;;;;;5013499;28;20265;-69
2022/05/01 14:39:05;;;;;;;4.82;4.22;;;;;;;;;;4999972;28;20183;-68
2022/05/01 14:41:33;;;;;;;4.32;3.90;;;;;;;;;;4985061;28;20214;-69
2022/05/01 14:44:02;;;;;;;5.28;4.72;;;;;;;;;;5012730;28;20166;-69
2022/05/01 14:46:27;;;;;;;5.85;4.57;;;;;;;;;;5012818;28;20254;-69
2022/05/01 14:49:00;;;;;;;6.88;5.10;;;;;;;;;;5009899;28;20630;-68
2022/05/01 14:51:26;;;;;;;5.55;4.55;;;;;;;;;;5010110;28;20293;-68
2022/05/01 14:53:53;;;;;;;4.47;4.15;;;;;;;;;;5013994;28;20275;-69
2022/05/01 14:56:18;;;;;;;5.63;3.90;;;;;;;;;;5015100;28;20254;-70
2022/05/01 15:06:59;;;;;;;5.70;4.22;;;;;;;;;;5014295;28;20557;-68